Warnow Moon — A8VX3 — position and weather

sailwx.info

Track history (hours):
 
Tides and Currents Weather Stations Pressure Air Temp Water Temp Dewpoint Dewpoint Depression Visibility Wind Speed Wind Dir Waves Ship Positions

Warnow Moon

Last reported at 2017-Jun-29 16:00 UTC. Time now 2017-Jun-29 16:00 UTC.
Position N 37°34' W 124°04'.

Length 180 m; draft 8.1 m.

Type: Cargo ship. MMSI: 636016909.

Date/timePositionNaut miles runAvg speedWind from/ knotsBaromVisibWave heightAir tempDewpointWater temp
2017-Jun-29 16:00N 37°34' W 124°04'611.2
2017-Jun-29 15:30N 37°34' W 123°57'611.0
2017-Jun-29 15:00N 37°34' W 123°50'1310.7
2017-Jun-29 13:48N 37°34' W 123°34'510.8
2017-Jun-29 13:22N 37°34' W 123°28'410.6
2017-Jun-29 13:00N 37°34' W 123°23'510.6
2017-Jun-29 12:30N 37°34' W 123°17'510.5
2017-Jun-29 12:00N 37°34' W 123°10'510.8
2017-Jun-29 11:30N 37°34' W 123°03'611.9
2017-Jun-29 11:01N 37°37' W 122°57'611.9
2017-Jun-29 10:30N 37°41' W 122°51'612.0
2017-Jun-29 10:00N 37°44' W 122°45'4 9.1
2017-Jun-29 09:30N 37°46' W 122°39'611.2
2017-Jun-29 09:00N 37°48' W 122°33'510.3
2017-Jun-29 08:30N 37°50' W 122°27'4 8.8
2017-Jun-29 08:00N 37°54' W 122°27'611.8
2017-Jun-29 07:30N 38°00' W 122°25'611.5
2017-Jun-29 07:00N 38°03' W 122°19'612.9
2017-Jun-29 06:30N 38°03' W 122°11'4 8.6
2017-Jun-29 05:59N 38°03' W 122°05'510.6
2017-Jun-29 05:28N 38°04' W 121°58'4 9.3
2017-Jun-29 05:00N 38°03' W 121°52'  
2017-Jun-24 16:54N 38°04' W 121°51'3 7.0
2017-Jun-24 16:31N 38°03' W 121°54'6 9.8
2017-Jun-24 15:53N 38°04' W 122°01'6 8.4
2017-Jun-24 15:10N 38°02' W 122°09'3 6.6
2017-Jun-24 14:40N 38°04' W 122°12'4 6.8
2017-Jun-24 14:00N 38°03' W 122°18'5 9.9
2017-Jun-24 13:30N 38°01' W 122°23'5 9.1
2017-Jun-24 13:00N 37°57' W 122°27'4 8.5
2017-Jun-24 12:30N 37°53' W 122°26'611.5
2017-Jun-24 12:00N 37°48' W 122°22'1 2.6
2017-Jun-24 11:26N 37°47' W 122°21'0 0.0
2017-Jun-24 10:59N 37°47' W 122°21'0 0.0
2017-Jun-24 10:29N 37°47' W 122°21'0 0.0
2017-Jun-24 09:59N 37°47' W 122°21'0 0.0
2017-Jun-24 09:29N 37°47' W 122°21'0 0.0
2017-Jun-24 08:59N 37°47' W 122°21'0 0.0
2017-Jun-24 08:29N 37°47' W 122°21'0 0.0
2017-Jun-24 07:59N 37°47' W 122°21'0 0.2
2017-Jun-24 07:29N 37°47' W 122°21'0 0.1
2017-Jun-24 06:59N 37°47' W 122°21'0 0.1
2017-Jun-24 06:29N 37°47' W 122°21'0 0.1
2017-Jun-24 05:59N 37°47' W 122°21'0 0.0
2017-Jun-24 05:29N 37°47' W 122°21'0 0.0
2017-Jun-24 04:59N 37°47' W 122°21'0 0.0
2017-Jun-24 04:29N 37°47' W 122°21'0 0.0
2017-Jun-24 03:59N 37°47' W 122°21'0 0.1
2017-Jun-24 03:29N 37°47' W 122°21'0 0.0
2017-Jun-24 02:59N 37°47' W 122°21'0 0.0
2017-Jun-24 02:29N 37°47' W 122°21'0 0.1
2017-Jun-24 01:59N 37°47' W 122°21'0 0.1
2017-Jun-24 01:29N 37°47' W 122°21'0 0.2
2017-Jun-24 00:59N 37°47' W 122°21'0 0.1
2017-Jun-24 00:29N 37°47' W 122°21'0 0.1
2017-Jun-23 23:59N 37°47' W 122°21'0 0.0
2017-Jun-23 23:29N 37°47' W 122°21'0 0.0
2017-Jun-23 22:59N 37°47' W 122°21'0 0.0
2017-Jun-23 22:29N 37°47' W 122°21'0 0.1
2017-Jun-23 21:59N 37°47' W 122°21'0 0.0
2017-Jun-23 21:29N 37°47' W 122°21'0 0.0
2017-Jun-23 20:59N 37°47' W 122°21'0 0.4
2017-Jun-23 20:29N 37°47' W 122°21'0 0.1
2017-Jun-23 19:59N 37°47' W 122°21'0 0.0
2017-Jun-23 19:29N 37°47' W 122°21'0 0.1
2017-Jun-23 18:59N 37°47' W 122°21'0 0.0
2017-Jun-23 18:29N 37°47' W 122°21'0 0.0
2017-Jun-23 17:59N 37°47' W 122°21'0 0.0
2017-Jun-23 17:29N 37°47' W 122°21'0 0.0
2017-Jun-23 16:59N 37°47' W 122°21'0 0.0
2017-Jun-23 16:29N 37°47' W 122°21'0 0.0
2017-Jun-23 15:59N 37°47' W 122°21'0 0.0
2017-Jun-23 15:29N 37°47' W 122°21'0 0.0
2017-Jun-23 14:59N 37°47' W 122°21'0 0.1
2017-Jun-23 13:59N 37°47' W 122°21'0 0.2
2017-Jun-23 13:29N 37°47' W 122°21'0 0.1
2017-Jun-23 12:59N 37°47' W 122°21'0 0.1
2017-Jun-23 12:29N 37°47' W 122°21'0 0.0
2017-Jun-23 11:59N 37°47' W 122°21'0 0.0
2017-Jun-23 11:29N 37°47' W 122°21'0 0.0
2017-Jun-23 10:59N 37°47' W 122°21'0 0.0
2017-Jun-23 10:29N 37°47' W 122°21'0 0.0
2017-Jun-23 09:59N 37°47' W 122°21'0 0.0
2017-Jun-23 09:29N 37°47' W 122°21'0 0.0
2017-Jun-23 08:59N 37°47' W 122°21'0 0.1
2017-Jun-23 08:29N 37°47' W 122°21'0 0.1
2017-Jun-23 07:59N 37°47' W 122°21'0 0.0
2017-Jun-23 07:29N 37°47' W 122°21'0 0.0
2017-Jun-23 06:59N 37°47' W 122°21'0 0.2
2017-Jun-23 06:29N 37°47' W 122°21'0 0.1
2017-Jun-23 05:59N 37°47' W 122°21'0 0.1
2017-Jun-23 05:29N 37°47' W 122°21'0 0.0
2017-Jun-23 04:59N 37°47' W 122°21'0 0.1
2017-Jun-23 04:29N 37°47' W 122°21'0 0.0
2017-Jun-23 03:59N 37°47' W 122°21'0 0.0
2017-Jun-23 03:29N 37°47' W 122°21'0 0.0
2017-Jun-23 02:59N 37°47' W 122°21'0 0.1
2017-Jun-23 02:29N 37°47' W 122°21'0 0.0
2017-Jun-23 01:59N 37°47' W 122°21'0 0.0
2017-Jun-23 01:29N 37°47' W 122°21'0 0.0
2017-Jun-23 00:59N 37°47' W 122°21'0 0.2
2017-Jun-23 00:29N 37°47' W 122°21'0 0.3
2017-Jun-22 23:59N 37°47' W 122°21'0 0.1
2017-Jun-22 23:29N 37°47' W 122°21'0 0.0
2017-Jun-22 22:59N 37°47' W 122°21'0 0.0
2017-Jun-22 22:29N 37°47' W 122°21'0 0.1
2017-Jun-22 21:59N 37°47' W 122°21'0 0.0
2017-Jun-22 21:29N 37°47' W 122°21'0 0.0
2017-Jun-22 20:59N 37°47' W 122°21'0 0.0
2017-Jun-22 20:29N 37°47' W 122°21'0 0.1
2017-Jun-22 19:59N 37°47' W 122°21'0 0.2
2017-Jun-22 19:29N 37°47' W 122°21'2 4.9
2017-Jun-22 19:00N 37°49' W 122°23'612.7
2017-Jun-22 18:30N 37°48' W 122°31'714.4
2017-Jun-22 18:01N 37°45' W 122°39'510.4
2017-Jun-22 17:30N 37°42' W 122°45'713.9
2017-Jun-22 17:01N 37°38' W 122°52'713.8
2017-Jun-22 16:31N 37°34' W 122°59'713.5
2017-Jun-22 16:00N 37°29' W 123°04'713.4
2017-Jun-22 15:31N 37°23' W 123°07'713.6
2017-Jun-22 15:00N 37°16' W 123°11'713.1
2017-Jun-22 14:30N 37°10' W 123°14'1312.4
2017-Jun-22 13:29N 36°59' W 123°20'612.1
2017-Jun-22 13:00N 36°53' W 123°24'611.4
2017-Jun-22 12:30N 36°49' W 123°27'611.2
2017-Jun-22 11:58N 36°43' W 123°30'511.1
2017-Jun-22 11:29N 36°38' W 123°33'510.7
2017-Jun-22 11:00N 36°34' W 123°36'3110.0
2017-Jun-22 07:53N 36°04' W 123°49'510.3
2017-Jun-22 07:26N 35°60' W 123°51'5 9.6
2017-Jun-22 06:58N 35°56' W 123°52'510.3
2017-Jun-22 06:26N 35°51' W 123°55'5 9.8
2017-Jun-22 05:58N 35°46' W 123°57'4 9.1
2017-Jun-22 05:30N 35°42' W 123°58'510.0
2017-Jun-22 04:59N 35°37' W 124°01'510.2
2017-Jun-22 04:30N 35°33' W 124°03'510.3
2017-Jun-22 04:00N 35°28' W 124°06'610.5
2017-Jun-22 03:28N 35°23' W 124°08'108 9.2
2017-Jun-21 15:44N 33°39' W 124°45'2 9.4
2017-Jun-21 15:30N 33°37' W 124°45'5 8.9
2017-Jun-21 14:55N 33°32' W 124°44'4 9.2
2017-Jun-21 14:28N 33°28' W 124°43'9 8.9
2017-Jun-21 13:30N 33°19' W 124°41'5 8.9
2017-Jun-21 12:59N 33°15' W 124°40'4 8.1
2017-Jun-21 12:29N 33°11' W 124°39'4 8.0
2017-Jun-21 12:00N 33°07' W 124°38'5 8.2
2017-Jun-21 11:25N 33°02' W 124°37'4 8.8
2017-Jun-21 11:00N 32°59' W 124°36'1910.8
2017-Jun-21 09:14N 32°42' W 124°25'411.1
2017-Jun-21 08:53N 32°39' W 124°22'12511.9
2017-Jun-20 22:24N 30°57' W 122°58'512.3
2017-Jun-20 22:00N 30°53' W 122°55'712.2
2017-Jun-20 21:25N 30°47' W 122°50'1712.0
2017-Jun-20 20:00N 30°33' W 122°39'2912.3
2017-Jun-20 17:39N 30°13' W 122°15'1212.6
2017-Jun-20 16:41N 30°05' W 122°04'212.7
2017-Jun-20 16:30N 30°04' W 122°02'612.7
2017-Jun-20 16:00N 29°60' W 121°56'612.8
2017-Jun-20 15:30N 29°56' W 121°50'612.9
2017-Jun-20 15:00N 29°51' W 121°45'713.1
2017-Jun-20 14:30N 29°47' W 121°39'1313.2
2017-Jun-20 13:30N 29°39' W 121°27'913.2
2017-Jun-20 12:48N 29°33' W 121°19'613.4
2017-Jun-20 12:19N 29°29' W 121°13'413.1
2017-Jun-20 12:00N 29°26' W 121°10'713.2
2017-Jun-20 11:30N 29°22' W 121°04'713.3
2017-Jun-20 11:01N 29°18' W 120°58'713.4
2017-Jun-20 10:31N 29°14' W 120°52'713.1
2017-Jun-20 10:00N 29°09' W 120°46'713.2
2017-Jun-20 09:30N 29°05' W 120°41'713.1
2017-Jun-20 09:00N 29°01' W 120°35'1113.1
2017-Jun-20 08:09N 28°54' W 120°25'313.1
2017-Jun-20 07:57N 28°52' W 120°23'713.1
2017-Jun-20 07:25N 28°47' W 120°17'  
Track history (hours):
 
Tides and Currents Weather Stations Pressure Air Temp Water Temp Dewpoint Dewpoint Depression Visibility Wind Speed Wind Dir Waves Ship Positions

Warnow Moon

Last reported at 2017-Jun-29 16:00 UTC. Time now 2017-Jun-29 16:00 UTC.
Position N 37°34' W 124°04'.

Length 180 m; draft 8.1 m.

Type: Cargo ship. MMSI: 636016909.

Date/timePositionNaut miles runAvg speedWind from/ knotsBaromVisibWave heightAir tempDewpointWater temp
2017-Jun-29 16:00N 37°34' W 124°04'611.2
2017-Jun-29 15:30N 37°34' W 123°57'611.0
2017-Jun-29 15:00N 37°34' W 123°50'1310.7
2017-Jun-29 13:48N 37°34' W 123°34'510.8
2017-Jun-29 13:22N 37°34' W 123°28'410.6
2017-Jun-29 13:00N 37°34' W 123°23'510.6
2017-Jun-29 12:30N 37°34' W 123°17'510.5
2017-Jun-29 12:00N 37°34' W 123°10'510.8
2017-Jun-29 11:30N 37°34' W 123°03'611.9
2017-Jun-29 11:01N 37°37' W 122°57'611.9
2017-Jun-29 10:30N 37°41' W 122°51'612.0
2017-Jun-29 10:00N 37°44' W 122°45'4 9.1
2017-Jun-29 09:30N 37°46' W 122°39'611.2
2017-Jun-29 09:00N 37°48' W 122°33'510.3
2017-Jun-29 08:30N 37°50' W 122°27'4 8.8
2017-Jun-29 08:00N 37°54' W 122°27'611.8
2017-Jun-29 07:30N 38°00' W 122°25'611.5
2017-Jun-29 07:00N 38°03' W 122°19'612.9
2017-Jun-29 06:30N 38°03' W 122°11'4 8.6
2017-Jun-29 05:59N 38°03' W 122°05'510.6
2017-Jun-29 05:28N 38°04' W 121°58'4 9.3
2017-Jun-29 05:00N 38°03' W 121°52'  
2017-Jun-24 16:54N 38°04' W 121°51'3 7.0
2017-Jun-24 16:31N 38°03' W 121°54'6 9.8
2017-Jun-24 15:53N 38°04' W 122°01'6 8.4
2017-Jun-24 15:10N 38°02' W 122°09'3 6.6
2017-Jun-24 14:40N 38°04' W 122°12'4 6.8
2017-Jun-24 14:00N 38°03' W 122°18'5 9.9
2017-Jun-24 13:30N 38°01' W 122°23'5 9.1
2017-Jun-24 13:00N 37°57' W 122°27'4 8.5
2017-Jun-24 12:30N 37°53' W 122°26'611.5
2017-Jun-24 12:00N 37°48' W 122°22'1 2.6
2017-Jun-24 11:26N 37°47' W 122°21'0 0.0
2017-Jun-24 10:59N 37°47' W 122°21'0 0.0
2017-Jun-24 10:29N 37°47' W 122°21'0 0.0
2017-Jun-24 09:59N 37°47' W 122°21'0 0.0
2017-Jun-24 09:29N 37°47' W 122°21'0 0.0
2017-Jun-24 08:59N 37°47' W 122°21'0 0.0
2017-Jun-24 08:29N 37°47' W 122°21'0 0.0
2017-Jun-24 07:59N 37°47' W 122°21'0 0.2
2017-Jun-24 07:29N 37°47' W 122°21'0 0.1
2017-Jun-24 06:59N 37°47' W 122°21'0 0.1
2017-Jun-24 06:29N 37°47' W 122°21'0 0.1
2017-Jun-24 05:59N 37°47' W 122°21'0 0.0
2017-Jun-24 05:29N 37°47' W 122°21'0 0.0
2017-Jun-24 04:59N 37°47' W 122°21'0 0.0
2017-Jun-24 04:29N 37°47' W 122°21'0 0.0
2017-Jun-24 03:59N 37°47' W 122°21'0 0.1
2017-Jun-24 03:29N 37°47' W 122°21'0 0.0
2017-Jun-24 02:59N 37°47' W 122°21'0 0.0
2017-Jun-24 02:29N 37°47' W 122°21'0 0.1
2017-Jun-24 01:59N 37°47' W 122°21'0 0.1
2017-Jun-24 01:29N 37°47' W 122°21'0 0.2
2017-Jun-24 00:59N 37°47' W 122°21'0 0.1
2017-Jun-24 00:29N 37°47' W 122°21'0 0.1
2017-Jun-23 23:59N 37°47' W 122°21'0 0.0
2017-Jun-23 23:29N 37°47' W 122°21'0 0.0
2017-Jun-23 22:59N 37°47' W 122°21'0 0.0
2017-Jun-23 22:29N 37°47' W 122°21'0 0.1
2017-Jun-23 21:59N 37°47' W 122°21'0 0.0
2017-Jun-23 21:29N 37°47' W 122°21'0 0.0
2017-Jun-23 20:59N 37°47' W 122°21'0 0.4
2017-Jun-23 20:29N 37°47' W 122°21'0 0.1
2017-Jun-23 19:59N 37°47' W 122°21'0 0.0
2017-Jun-23 19:29N 37°47' W 122°21'0 0.1
2017-Jun-23 18:59N 37°47' W 122°21'0 0.0
2017-Jun-23 18:29N 37°47' W 122°21'0 0.0
2017-Jun-23 17:59N 37°47' W 122°21'0 0.0
2017-Jun-23 17:29N 37°47' W 122°21'0 0.0
2017-Jun-23 16:59N 37°47' W 122°21'0 0.0
2017-Jun-23 16:29N 37°47' W 122°21'0 0.0
2017-Jun-23 15:59N 37°47' W 122°21'0 0.0
2017-Jun-23 15:29N 37°47' W 122°21'0 0.0
2017-Jun-23 14:59N 37°47' W 122°21'0 0.1
2017-Jun-23 13:59N 37°47' W 122°21'0 0.2
2017-Jun-23 13:29N 37°47' W 122°21'0 0.1
2017-Jun-23 12:59N 37°47' W 122°21'0 0.1
2017-Jun-23 12:29N 37°47' W 122°21'0 0.0
2017-Jun-23 11:59N 37°47' W 122°21'0 0.0
2017-Jun-23 11:29N 37°47' W 122°21'0 0.0
2017-Jun-23 10:59N 37°47' W 122°21'0 0.0
2017-Jun-23 10:29N 37°47' W 122°21'0 0.0
2017-Jun-23 09:59N 37°47' W 122°21'0 0.0
2017-Jun-23 09:29N 37°47' W 122°21'0 0.0
2017-Jun-23 08:59N 37°47' W 122°21'0 0.1
2017-Jun-23 08:29N 37°47' W 122°21'0 0.1
2017-Jun-23 07:59N 37°47' W 122°21'0 0.0
2017-Jun-23 07:29N 37°47' W 122°21'0 0.0
2017-Jun-23 06:59N 37°47' W 122°21'0 0.2
2017-Jun-23 06:29N 37°47' W 122°21'0 0.1
2017-Jun-23 05:59N 37°47' W 122°21'0 0.1
2017-Jun-23 05:29N 37°47' W 122°21'0 0.0
2017-Jun-23 04:59N 37°47' W 122°21'0 0.1
2017-Jun-23 04:29N 37°47' W 122°21'0 0.0
2017-Jun-23 03:59N 37°47' W 122°21'0 0.0
2017-Jun-23 03:29N 37°47' W 122°21'0 0.0
2017-Jun-23 02:59N 37°47' W 122°21'0 0.1
2017-Jun-23 02:29N 37°47' W 122°21'0 0.0
2017-Jun-23 01:59N 37°47' W 122°21'0 0.0
2017-Jun-23 01:29N 37°47' W 122°21'0 0.0
2017-Jun-23 00:59N 37°47' W 122°21'0 0.2
2017-Jun-23 00:29N 37°47' W 122°21'0 0.3
2017-Jun-22 23:59N 37°47' W 122°21'0 0.1
2017-Jun-22 23:29N 37°47' W 122°21'0 0.0
2017-Jun-22 22:59N 37°47' W 122°21'0 0.0
2017-Jun-22 22:29N 37°47' W 122°21'0 0.1
2017-Jun-22 21:59N 37°47' W 122°21'0 0.0
2017-Jun-22 21:29N 37°47' W 122°21'0 0.0
2017-Jun-22 20:59N 37°47' W 122°21'0 0.0
2017-Jun-22 20:29N 37°47' W 122°21'0 0.1
2017-Jun-22 19:59N 37°47' W 122°21'0 0.2
2017-Jun-22 19:29N 37°47' W 122°21'2 4.9
2017-Jun-22 19:00N 37°49' W 122°23'612.7
2017-Jun-22 18:30N 37°48' W 122°31'714.4
2017-Jun-22 18:01N 37°45' W 122°39'510.4
2017-Jun-22 17:30N 37°42' W 122°45'713.9
2017-Jun-22 17:01N 37°38' W 122°52'713.8
2017-Jun-22 16:31N 37°34' W 122°59'713.5
2017-Jun-22 16:00N 37°29' W 123°04'713.4
2017-Jun-22 15:31N 37°23' W 123°07'713.6
2017-Jun-22 15:00N 37°16' W 123°11'713.1
2017-Jun-22 14:30N 37°10' W 123°14'1312.4
2017-Jun-22 13:29N 36°59' W 123°20'612.1
2017-Jun-22 13:00N 36°53' W 123°24'611.4
2017-Jun-22 12:30N 36°49' W 123°27'611.2
2017-Jun-22 11:58N 36°43' W 123°30'511.1
2017-Jun-22 11:29N 36°38' W 123°33'510.7
2017-Jun-22 11:00N 36°34' W 123°36'3110.0
2017-Jun-22 07:53N 36°04' W 123°49'510.3
2017-Jun-22 07:26N 35°60' W 123°51'5 9.6
2017-Jun-22 06:58N 35°56' W 123°52'510.3
2017-Jun-22 06:26N 35°51' W 123°55'5 9.8
2017-Jun-22 05:58N 35°46' W 123°57'4 9.1
2017-Jun-22 05:30N 35°42' W 123°58'510.0
2017-Jun-22 04:59N 35°37' W 124°01'510.2
2017-Jun-22 04:30N 35°33' W 124°03'510.3
2017-Jun-22 04:00N 35°28' W 124°06'610.5
2017-Jun-22 03:28N 35°23' W 124°08'108 9.2
2017-Jun-21 15:44N 33°39' W 124°45'2 9.4
2017-Jun-21 15:30N 33°37' W 124°45'5 8.9
2017-Jun-21 14:55N 33°32' W 124°44'4 9.2
2017-Jun-21 14:28N 33°28' W 124°43'9 8.9
2017-Jun-21 13:30N 33°19' W 124°41'5 8.9
2017-Jun-21 12:59N 33°15' W 124°40'4 8.1
2017-Jun-21 12:29N 33°11' W 124°39'4 8.0
2017-Jun-21 12:00N 33°07' W 124°38'5 8.2
2017-Jun-21 11:25N 33°02' W 124°37'4 8.8
2017-Jun-21 11:00N 32°59' W 124°36'1910.8
2017-Jun-21 09:14N 32°42' W 124°25'411.1
2017-Jun-21 08:53N 32°39' W 124°22'12511.9
2017-Jun-20 22:24N 30°57' W 122°58'512.3
2017-Jun-20 22:00N 30°53' W 122°55'712.2
2017-Jun-20 21:25N 30°47' W 122°50'1712.0
2017-Jun-20 20:00N 30°33' W 122°39'2912.3
2017-Jun-20 17:39N 30°13' W 122°15'1212.6
2017-Jun-20 16:41N 30°05' W 122°04'212.7
2017-Jun-20 16:30N 30°04' W 122°02'612.7
2017-Jun-20 16:00N 29°60' W 121°56'612.8
2017-Jun-20 15:30N 29°56' W 121°50'612.9
2017-Jun-20 15:00N 29°51' W 121°45'713.1
2017-Jun-20 14:30N 29°47' W 121°39'1313.2
2017-Jun-20 13:30N 29°39' W 121°27'913.2
2017-Jun-20 12:48N 29°33' W 121°19'613.4
2017-Jun-20 12:19N 29°29' W 121°13'413.1
2017-Jun-20 12:00N 29°26' W 121°10'713.2
2017-Jun-20 11:30N 29°22' W 121°04'713.3
2017-Jun-20 11:01N 29°18' W 120°58'713.4
2017-Jun-20 10:31N 29°14' W 120°52'713.1
2017-Jun-20 10:00N 29°09' W 120°46'713.2
2017-Jun-20 09:30N 29°05' W 120°41'713.1
2017-Jun-20 09:00N 29°01' W 120°35'1113.1
2017-Jun-20 08:09N 28°54' W 120°25'313.1
2017-Jun-20 07:57N 28°52' W 120°23'713.1
2017-Jun-20 07:25N 28°47' W 120°17'  

Dump ship's entire track history